createdAt,value
2023-04-22T03:00:36.930Z,6.01
2023-04-22T03:03:05.926Z,6.02
2023-04-22T03:05:36.215Z,6.09
2023-04-22T03:08:05.186Z,6.18
2023-04-22T03:10:34.119Z,6.23
2023-04-22T03:13:03.928Z,6.24
2023-04-22T03:15:34.493Z,6.14
2023-04-22T03:18:03.950Z,6.05
2023-04-22T03:20:32.968Z,5.96
2023-04-22T03:23:02.071Z,5.92
2023-04-22T03:25:32.315Z,5.94
2023-04-22T03:28:03.356Z,5.92
2023-04-22T03:30:34.043Z,5.91
2023-04-22T03:33:02.870Z,5.92
2023-04-22T03:35:43.965Z,5.91
2023-04-22T03:38:13.376Z,5.97
2023-04-22T03:40:43.755Z,6.07
2023-04-22T03:43:23.862Z,6.17
2023-04-22T03:46:01.201Z,6.23
2023-04-22T03:48:36.668Z,6.26
2023-04-22T03:51:12.165Z,6.18
2023-04-22T03:53:43.875Z,6.05
2023-04-22T03:56:16.015Z,5.94
2023-04-22T03:58:47.105Z,5.89
2023-04-22T04:01:18.645Z,5.85
2023-04-22T04:03:51.631Z,5.78
2023-04-22T04:06:21.457Z,5.78
2023-04-22T04:08:50.100Z,5.79
2023-04-22T04:11:19.300Z,5.79
2023-04-22T04:13:49.457Z,5.81
2023-04-22T04:16:31.438Z,5.86
2023-04-22T04:19:07.108Z,5.87
2023-04-22T04:21:37.911Z,5.88
2023-04-22T04:24:07.637Z,5.90
2023-04-22T04:26:40.754Z,5.91
2023-04-22T04:29:21.374Z,5.95
2023-04-22T04:31:59.059Z,5.98
2023-04-22T04:34:35.382Z,6.05
2023-04-22T04:37:04.906Z,6.27
2023-04-22T04:40:00.120Z,6.76
2023-04-22T04:42:37.961Z,7.09
2023-04-22T04:45:10.045Z,7.37
2023-04-22T04:47:39.593Z,7.61
2023-04-22T04:50:16.454Z,7.90
2023-04-22T04:52:46.665Z,8.30
2023-04-22T04:55:15.830Z,8.67
2023-04-22T04:57:45.556Z,8.81
2023-04-22T05:00:15.179Z,9.06
2023-04-22T05:02:44.136Z,9.42
2023-04-22T05:05:13.215Z,9.77
2023-04-22T05:07:42.001Z,10.09
2023-04-22T05:10:11.773Z,10.45
2023-04-22T05:12:44.622Z,10.80
2023-04-22T05:15:16.310Z,11.19
2023-04-22T05:17:45.121Z,11.43
2023-04-22T05:20:14.980Z,11.79
2023-04-22T05:22:45.525Z,12.02
2023-04-22T05:25:17.454Z,12.32
2023-04-22T05:27:54.303Z,12.94
2023-04-22T05:30:23.237Z,13.70
2023-04-22T05:32:52.177Z,14.56
2023-04-22T05:35:21.470Z,15.46
2023-04-22T05:37:50.389Z,16.36
2023-04-22T05:40:20.342Z,17.19
2023-04-22T05:42:49.230Z,17.00
2023-04-22T05:45:17.883Z,16.57
2023-04-22T05:47:47.378Z,16.14
2023-04-22T05:50:16.438Z,15.69
2023-04-22T05:52:55.038Z,15.33
2023-04-22T05:55:23.754Z,15.41
2023-04-22T05:57:52.669Z,16.72
2023-04-22T06:00:40.309Z,18.24
2023-04-22T06:03:24.087Z,19.60
2023-04-22T06:05:53.296Z,20.26
2023-04-22T06:08:21.783Z,19.60
2023-04-22T06:10:52.444Z,18.85
2023-04-22T06:13:23.433Z,18.09
2023-04-22T06:15:53.533Z,17.36
2023-04-22T06:18:22.558Z,16.71
2023-04-22T06:20:52.606Z,16.16
2023-04-22T06:23:21.788Z,15.64
2023-04-22T06:25:50.355Z,15.25
2023-04-22T06:28:19.614Z,14.87
2023-04-22T06:30:49.000Z,14.55
2023-04-22T06:33:18.144Z,14.28
2023-04-22T06:35:46.709Z,14.06
2023-04-22T06:38:15.176Z,13.87
2023-04-22T06:40:55.862Z,13.74
2023-04-22T06:43:27.863Z,13.71
2023-04-22T06:46:17.680Z,13.68
2023-04-22T06:49:06.148Z,13.68
2023-04-22T06:52:06.819Z,13.72
2023-04-22T06:54:36.398Z,13.78
2023-04-22T06:57:05.269Z,13.86
2023-04-22T06:59:34.415Z,13.97
2023-04-22T07:02:03.620Z,14.09
2023-04-22T07:04:34.044Z,14.20
2023-04-22T07:07:03.768Z,14.31
2023-04-22T07:09:33.127Z,14.41
2023-04-22T07:12:03.267Z,14.49
2023-04-22T07:14:33.668Z,14.53
2023-04-22T07:17:02.697Z,14.63
2023-04-22T07:19:33.272Z,14.75
2023-04-22T07:22:04.733Z,14.89
2023-04-22T07:24:33.649Z,14.99
2023-04-22T07:27:02.999Z,15.09
2023-04-22T07:29:31.954Z,15.21
2023-04-22T07:32:00.832Z,15.28
2023-04-22T07:34:29.218Z,15.30
2023-04-22T07:36:58.324Z,15.35
2023-04-22T07:39:27.609Z,15.46
2023-04-22T07:41:57.996Z,15.59
2023-04-22T07:44:26.196Z,15.64
2023-04-22T07:46:56.313Z,15.65
2023-04-22T07:49:24.966Z,15.63
2023-04-22T07:51:54.133Z,15.65
2023-04-22T07:54:23.443Z,15.62
2023-04-22T07:56:52.422Z,15.63
2023-04-22T07:59:21.505Z,15.69
2023-04-22T08:01:49.788Z,15.71
2023-04-22T08:04:19.093Z,15.69
2023-04-22T08:06:48.426Z,15.65
2023-04-22T08:09:16.805Z,15.62
2023-04-22T08:11:45.946Z,15.62
2023-04-22T08:14:15.004Z,15.63
2023-04-22T08:16:43.708Z,15.62
2023-04-22T08:19:12.460Z,15.58
2023-04-22T08:21:40.792Z,15.57
2023-04-22T08:24:09.609Z,15.60
2023-04-22T08:26:38.734Z,15.61
2023-04-22T08:29:07.377Z,15.64
2023-04-22T08:31:35.608Z,15.65
2023-04-22T08:34:04.307Z,15.65
2023-04-22T08:36:32.899Z,15.68
2023-04-22T08:39:01.413Z,15.69
2023-04-22T08:41:31.221Z,15.72
2023-04-22T08:44:00.188Z,15.75
2023-04-22T08:46:28.985Z,15.80
2023-04-22T08:49:03.516Z,15.79
2023-04-22T08:51:34.243Z,15.79
2023-04-22T08:54:02.459Z,15.82
2023-04-22T08:56:31.810Z,15.81
2023-04-22T08:59:00.336Z,15.78
2023-04-22T09:01:31.588Z,15.80
2023-04-22T09:04:01.353Z,15.82
2023-04-22T09:06:30.706Z,15.80
2023-04-22T09:08:59.338Z,15.82
2023-04-22T09:11:28.473Z,15.88
2023-04-22T09:13:57.450Z,15.95
2023-04-22T09:16:25.913Z,15.98
2023-04-22T09:18:54.707Z,15.98
2023-04-22T09:21:28.457Z,15.99
2023-04-22T09:23:58.087Z,16.00
2023-04-22T09:26:26.706Z,16.02
2023-04-22T09:28:56.725Z,16.10
2023-04-22T09:31:26.032Z,16.19
2023-04-22T09:33:56.612Z,16.27
2023-04-22T09:36:29.230Z,16.30
2023-04-22T09:38:59.607Z,16.40
2023-04-22T09:41:35.870Z,16.52
2023-04-22T09:44:08.084Z,16.59
2023-04-22T09:46:36.422Z,16.66
2023-04-22T09:49:04.869Z,16.71
2023-04-22T09:51:34.930Z,16.68
2023-04-22T09:54:11.811Z,16.71
2023-04-22T09:57:12.285Z,16.71
2023-04-22T09:59:41.557Z,16.70
2023-04-22T10:02:10.928Z,16.69
2023-04-22T10:04:39.501Z,16.71
2023-04-22T10:07:08.139Z,16.70
2023-04-22T10:09:36.545Z,16.66
2023-04-22T10:12:05.132Z,16.66
2023-04-22T10:14:33.994Z,16.72
2023-04-22T10:17:04.354Z,16.78
2023-04-22T10:19:33.606Z,16.82
2023-04-22T10:22:04.264Z,16.90
2023-04-22T10:24:37.624Z,16.98
2023-04-22T10:27:11.058Z,17.00
2023-04-22T10:29:40.932Z,17.06
2023-04-22T10:32:18.957Z,17.09
2023-04-22T10:34:48.292Z,17.10
2023-04-22T10:37:20.963Z,17.05
2023-04-22T10:40:09.060Z,17.02
2023-04-22T10:42:43.082Z,17.01
2023-04-22T10:45:15.265Z,16.99
2023-04-22T10:47:44.588Z,16.98
2023-04-22T10:50:13.517Z,17.03
2023-04-22T10:52:43.265Z,17.08
2023-04-22T10:55:13.418Z,17.15
2023-04-22T10:57:46.309Z,17.23
2023-04-22T11:00:21.683Z,17.35
2023-04-22T11:03:05.527Z,17.42
2023-04-22T11:05:35.801Z,17.47
2023-04-22T11:08:09.179Z,17.48
2023-04-22T11:10:44.115Z,17.47
2023-04-22T11:13:22.733Z,17.48
2023-04-22T11:15:56.156Z,17.50
2023-04-22T11:18:29.771Z,17.50
2023-04-22T11:21:03.498Z,17.53
2023-04-22T11:23:31.854Z,17.58
2023-04-22T11:26:01.884Z,17.63
2023-04-22T11:28:30.727Z,17.67
2023-04-22T11:31:02.604Z,17.73
2023-04-22T11:33:38.735Z,17.80
2023-04-22T11:36:10.781Z,17.87
2023-04-22T11:38:39.346Z,17.87
2023-04-22T11:41:08.129Z,17.83
2023-04-22T11:43:45.896Z,17.83
2023-04-22T11:46:14.505Z,17.84
2023-04-22T11:48:43.035Z,17.85
2023-04-22T11:51:11.982Z,17.88
2023-04-22T11:53:49.837Z,17.90
2023-04-22T11:56:18.113Z,17.96
2023-04-22T11:58:47.610Z,17.96
2023-04-22T12:01:16.462Z,17.94
2023-04-22T12:03:44.917Z,17.93
2023-04-22T12:06:13.516Z,17.93
2023-04-22T12:08:44.681Z,17.92
2023-04-22T12:11:13.628Z,17.91
2023-04-22T12:13:43.663Z,17.94
2023-04-22T12:16:19.968Z,18.00
2023-04-22T12:18:49.186Z,18.04
2023-04-22T12:21:19.475Z,18.08
2023-04-22T12:23:49.321Z,18.10
2023-04-22T12:26:18.467Z,18.10
2023-04-22T12:28:47.583Z,18.10
2023-04-22T12:31:16.847Z,18.12
2023-04-22T12:33:46.845Z,18.18
2023-04-22T12:36:15.853Z,18.24
2023-04-22T12:38:44.438Z,18.30
2023-04-22T12:41:12.530Z,18.35
2023-04-22T12:43:41.189Z,18.42
2023-04-22T12:46:10.586Z,18.47
2023-04-22T12:48:39.293Z,18.52
2023-04-22T12:51:07.467Z,18.56
2023-04-22T12:53:35.527Z,18.60
2023-04-22T12:56:03.639Z,18.59
2023-04-22T12:58:31.666Z,18.55
2023-04-22T13:00:59.753Z,18.59
2023-04-22T13:03:28.824Z,18.59
2023-04-22T13:05:57.937Z,18.58
2023-04-22T13:08:27.930Z,18.59
2023-04-22T13:10:57.309Z,18.60
2023-04-22T13:13:26.365Z,18.64
2023-04-22T13:15:55.109Z,18.68
2023-04-22T13:18:24.640Z,18.70
2023-04-22T13:20:55.666Z,18.74
2023-04-22T13:23:26.521Z,18.77
2023-04-22T13:25:55.274Z,18.79
2023-04-22T13:28:24.181Z,18.82
2023-04-22T13:30:52.816Z,18.84
2023-04-22T13:33:21.812Z,18.84
2023-04-22T13:35:49.995Z,18.86
2023-04-22T13:38:18.507Z,18.86
2023-04-22T13:40:47.033Z,18.83
2023-04-22T13:43:15.667Z,18.83
2023-04-22T13:45:44.374Z,18.83
2023-04-22T13:48:13.516Z,18.83
2023-04-22T13:50:42.918Z,18.80
2023-04-22T13:53:12.603Z,18.76
2023-04-22T13:55:43.695Z,18.75
2023-04-22T13:58:12.226Z,18.74
2023-04-22T14:00:40.931Z,18.73
2023-04-22T14:03:09.830Z,18.74
2023-04-22T14:05:39.072Z,18.78
2023-04-22T14:08:08.388Z,18.79
2023-04-22T14:10:37.668Z,18.79
2023-04-22T14:13:06.939Z,18.80
2023-04-22T14:15:36.382Z,18.79
2023-04-22T14:18:05.206Z,18.79
2023-04-22T14:20:34.712Z,18.77
2023-04-22T14:23:05.561Z,18.73
2023-04-22T14:25:34.203Z,18.71
2023-04-22T14:28:03.745Z,18.70
2023-04-22T14:30:32.199Z,18.68
2023-04-22T14:33:01.572Z,18.66
2023-04-22T14:35:30.524Z,18.61
2023-04-22T14:37:59.392Z,18.60
2023-04-22T14:40:29.639Z,18.61
2023-04-22T14:43:00.150Z,18.60
2023-04-22T14:45:29.613Z,18.61
2023-04-22T14:47:59.148Z,18.62
2023-04-22T14:50:28.349Z,18.62
2023-04-22T14:52:57.601Z,18.62
2023-04-22T14:55:26.473Z,18.64
2023-04-22T14:57:58.180Z,18.63
2023-04-22T15:00:26.484Z,18.64
2023-04-22T15:02:55.473Z,18.62
2023-04-22T15:05:25.419Z,18.59
2023-04-22T15:07:53.773Z,18.57
2023-04-22T15:10:21.830Z,18.53
2023-04-22T15:12:50.128Z,18.53
2023-04-22T15:15:18.738Z,18.50
2023-04-22T15:17:46.929Z,18.48
2023-04-22T15:20:15.578Z,18.47
2023-04-22T15:22:44.483Z,18.46
2023-04-22T15:25:14.043Z,18.45
2023-04-22T15:27:43.287Z,18.44
2023-04-22T15:30:12.478Z,18.42
2023-04-22T15:32:41.205Z,18.38
2023-04-22T15:35:11.069Z,18.33
2023-04-22T15:37:40.431Z,18.32
2023-04-22T15:40:10.488Z,18.29
2023-04-22T15:42:39.908Z,18.27
2023-04-22T15:45:08.501Z,18.26
2023-04-22T15:47:36.771Z,18.24
2023-04-22T15:50:09.655Z,18.22
2023-04-22T15:52:39.497Z,18.21
2023-04-22T15:55:08.657Z,18.21
2023-04-22T15:57:37.705Z,18.17
2023-04-22T16:00:12.497Z,18.12
2023-04-22T16:02:45.412Z,18.04
2023-04-22T16:05:15.136Z,17.99
2023-04-22T16:07:43.717Z,17.95
2023-04-22T16:10:12.510Z,17.95
2023-04-22T16:12:41.949Z,17.96
2023-04-22T16:15:10.983Z,17.94
2023-04-22T16:17:39.561Z,17.89
2023-04-22T16:20:08.648Z,17.85
2023-04-22T16:22:37.722Z,17.78
2023-04-22T16:25:06.702Z,17.74
2023-04-22T16:27:35.395Z,17.71
2023-04-22T16:30:04.371Z,17.69
2023-04-22T16:32:32.981Z,17.66
2023-04-22T16:35:02.307Z,17.64
2023-04-22T16:37:32.014Z,17.63
2023-04-22T16:40:01.552Z,17.62
2023-04-22T16:42:29.985Z,17.60
2023-04-22T16:44:59.274Z,17.58
2023-04-22T16:47:28.123Z,17.56
2023-04-22T16:50:02.748Z,17.56
2023-04-22T16:52:31.430Z,17.56
2023-04-22T16:55:01.100Z,17.55
2023-04-22T16:57:29.806Z,17.54
2023-04-22T16:59:58.146Z,17.52
2023-04-22T17:02:26.526Z,17.48
2023-04-22T17:04:55.199Z,17.45
2023-04-22T17:07:23.616Z,17.42
2023-04-22T17:09:52.164Z,17.39
2023-04-22T17:12:20.580Z,17.35
2023-04-22T17:14:48.848Z,17.32
2023-04-22T17:17:17.103Z,17.30
2023-04-22T17:19:45.716Z,17.28
2023-04-22T17:22:14.095Z,17.25
2023-04-22T17:24:42.911Z,17.18
2023-04-22T17:27:15.426Z,17.12
2023-04-22T17:29:44.213Z,17.11
2023-04-22T17:32:12.734Z,17.07
2023-04-22T17:34:41.676Z,17.02
2023-04-22T17:37:10.786Z,16.96
2023-04-22T17:39:41.042Z,16.84
2023-04-22T17:42:09.336Z,16.72
2023-04-22T17:44:37.602Z,16.62
2023-04-22T17:47:07.514Z,16.52
2023-04-22T17:49:36.388Z,16.43
2023-04-22T17:52:05.300Z,16.36
2023-04-22T17:54:33.908Z,16.31
2023-04-22T17:57:02.457Z,16.28
2023-04-22T17:59:31.145Z,16.24
2023-04-22T18:02:02.430Z,16.20
2023-04-22T18:04:32.125Z,16.13
2023-04-22T18:07:00.917Z,16.01
2023-04-22T18:09:29.148Z,15.88
2023-04-22T18:12:00.343Z,15.74
2023-04-22T18:14:28.627Z,15.62
2023-04-22T18:16:56.932Z,15.54
2023-04-22T18:19:25.877Z,15.45
2023-04-22T18:22:00.095Z,15.34
2023-04-22T18:24:29.829Z,15.20
2023-04-22T18:26:58.675Z,15.07
2023-04-22T18:29:27.257Z,14.94
2023-04-22T18:31:57.149Z,14.84
2023-04-22T18:34:25.518Z,14.77
2023-04-22T18:36:54.464Z,14.69
2023-04-22T18:39:22.687Z,14.62
2023-04-22T18:41:51.437Z,14.56
2023-04-22T18:44:21.312Z,14.48
2023-04-22T18:46:50.789Z,14.43
2023-04-22T18:49:18.952Z,14.37
2023-04-22T18:51:49.579Z,14.28
2023-04-22T18:54:18.069Z,14.20
2023-04-22T18:56:46.313Z,14.12
2023-04-22T18:59:14.847Z,14.02
2023-04-22T19:01:43.297Z,13.93
2023-04-22T19:04:12.140Z,13.83
2023-04-22T19:06:41.885Z,13.73
2023-04-22T19:09:10.196Z,13.66
2023-04-22T19:11:38.582Z,13.61
2023-04-22T19:14:06.903Z,13.58
2023-04-22T19:16:35.637Z,13.53
2023-04-22T19:19:03.956Z,13.46
2023-04-22T19:21:32.798Z,13.39
2023-04-22T19:24:01.126Z,13.34
2023-04-22T19:26:29.847Z,13.34
2023-04-22T19:28:58.673Z,13.31
2023-04-22T19:31:28.528Z,13.26
2023-04-22T19:33:57.007Z,13.22
2023-04-22T19:36:25.195Z,13.14
2023-04-22T19:38:53.512Z,13.08
2023-04-22T19:41:21.909Z,13.03
2023-04-22T19:43:50.271Z,12.97
2023-04-22T19:46:18.812Z,12.94
2023-04-22T19:48:47.727Z,12.93
2023-04-22T19:51:15.917Z,12.91
2023-04-22T19:53:45.329Z,12.88
2023-04-22T19:56:15.253Z,12.84
2023-04-22T19:58:44.589Z,12.80
2023-04-22T20:01:13.891Z,12.76
2023-04-22T20:03:43.107Z,12.73
2023-04-22T20:06:13.749Z,12.70
2023-04-22T20:08:43.296Z,12.67
2023-04-22T20:11:12.734Z,12.67
2023-04-22T20:13:42.845Z,12.66
2023-04-22T20:16:13.316Z,12.67
2023-04-22T20:18:42.493Z,12.68
2023-04-22T20:21:11.899Z,12.67
2023-04-22T20:23:42.011Z,12.65
2023-04-22T20:26:12.070Z,12.60
2023-04-22T20:28:48.487Z,12.55
2023-04-22T20:31:23.476Z,12.50
2023-04-22T20:33:52.156Z,12.47
2023-04-22T20:36:23.200Z,12.45
2023-04-22T20:38:55.233Z,12.41
2023-04-22T20:41:25.370Z,12.36
2023-04-22T20:43:53.836Z,12.31
2023-04-22T20:46:23.728Z,12.31
2023-04-22T20:48:53.384Z,12.28
2023-04-22T20:51:22.323Z,12.24
2023-04-22T20:53:51.502Z,12.21
2023-04-22T20:56:22.015Z,12.19
2023-04-22T20:58:50.996Z,12.16
2023-04-22T21:01:19.963Z,12.12
2023-04-22T21:03:53.562Z,12.05
2023-04-22T21:06:23.293Z,11.98
2023-04-22T21:08:53.448Z,11.92
2023-04-22T21:11:22.393Z,11.90
2023-04-22T21:13:52.972Z,11.88
2023-04-22T21:16:27.849Z,11.84
2023-04-22T21:19:01.547Z,11.78
2023-04-22T21:21:37.310Z,11.69
2023-04-22T21:24:07.415Z,11.61
2023-04-22T21:26:36.998Z,11.56
2023-04-22T21:29:06.885Z,11.51
2023-04-22T21:31:35.762Z,11.47
2023-04-22T21:34:07.383Z,11.45
2023-04-22T21:36:36.307Z,11.40
2023-04-22T21:39:05.254Z,11.33
2023-04-22T21:41:33.779Z,11.24
2023-04-22T21:44:02.793Z,11.18
2023-04-22T21:46:32.020Z,11.14
2023-04-22T21:49:01.536Z,11.07
2023-04-22T21:51:32.066Z,11.01
2023-04-22T21:54:01.518Z,10.99
2023-04-22T21:56:34.113Z,10.99
2023-04-22T21:59:03.653Z,11.01
2023-04-22T22:01:32.429Z,11.03
2023-04-22T22:04:01.710Z,11.02
2023-04-22T22:06:34.646Z,11.00
2023-04-22T22:09:03.230Z,10.91
2023-04-22T22:11:31.790Z,10.83
2023-04-22T22:14:00.901Z,10.79
2023-04-22T22:16:30.009Z,10.80
2023-04-22T22:18:59.091Z,10.81
2023-04-22T22:21:28.458Z,10.80
2023-04-22T22:23:58.366Z,10.79
2023-04-22T22:26:28.203Z,10.76
2023-04-22T22:28:57.305Z,10.74
2023-04-22T22:31:26.486Z,10.70
2023-04-22T22:33:55.666Z,10.68
2023-04-22T22:36:26.056Z,10.67
2023-04-22T22:38:55.816Z,10.65
2023-04-22T22:41:25.094Z,10.68
2023-04-22T22:43:54.181Z,10.71
2023-04-22T22:46:23.859Z,10.73
2023-04-22T22:48:53.015Z,10.74
2023-04-22T22:51:21.345Z,10.74
2023-04-22T22:53:50.198Z,10.73
2023-04-22T22:56:21.467Z,10.73
2023-04-22T22:58:50.668Z,10.71
2023-04-22T23:01:19.876Z,10.71
2023-04-22T23:03:49.242Z,10.71
2023-04-22T23:06:19.156Z,10.71
2023-04-22T23:08:48.609Z,10.69
2023-04-22T23:11:17.502Z,10.70
2023-04-22T23:13:47.272Z,10.70
2023-04-22T23:16:17.393Z,10.69
2023-04-22T23:18:46.936Z,10.67
2023-04-22T23:21:19.703Z,10.66
2023-04-22T23:23:49.321Z,10.65
2023-04-22T23:26:18.778Z,10.64
2023-04-22T23:28:47.547Z,10.62
2023-04-22T23:31:17.841Z,10.60
2023-04-22T23:33:49.668Z,10.60
2023-04-22T23:36:22.922Z,10.61
2023-04-22T23:38:51.730Z,10.62
2023-04-22T23:41:20.152Z,10.61
2023-04-22T23:43:49.506Z,10.62
2023-04-22T23:46:18.861Z,10.65
2023-04-22T23:48:48.549Z,10.68
2023-04-22T23:51:17.676Z,10.70
2023-04-22T23:53:47.110Z,10.71
2023-04-22T23:56:21.236Z,10.70
2023-04-22T23:58:51.610Z,10.68
